createdAt,value
2023-02-23T00:00:28.504Z,11.27
2023-02-23T00:02:56.104Z,12.05
2023-02-23T00:05:22.462Z,10.73
2023-02-23T00:07:48.769Z,11.35
2023-02-23T00:10:15.096Z,11.23
2023-02-23T00:12:41.450Z,11.43
2023-02-23T00:15:07.786Z,11.77
2023-02-23T00:17:36.706Z,10.95
2023-02-23T00:20:07.705Z,12.57
2023-02-23T00:22:34.035Z,11.68
2023-02-23T00:25:00.781Z,11.98
2023-02-23T00:27:27.646Z,12.68
2023-02-23T00:29:54.008Z,11.73
2023-02-23T00:32:20.864Z,11.88
2023-02-23T00:34:49.953Z,11.60
2023-02-23T00:37:16.285Z,11.70
2023-02-23T00:39:42.652Z,12.05
2023-02-23T00:42:08.997Z,11.65
2023-02-23T00:44:35.370Z,11.85
2023-02-23T00:47:01.685Z,12.30
2023-02-23T00:49:28.029Z,11.80
2023-02-23T00:51:54.346Z,12.27
2023-02-23T00:54:20.655Z,11.40
2023-02-23T00:56:47.124Z,12.30
2023-02-23T00:59:13.463Z,12.07
2023-02-23T01:01:41.812Z,11.93
2023-02-23T01:04:08.343Z,12.32
2023-02-23T01:06:34.657Z,12.40
2023-02-23T01:09:05.384Z,12.18
2023-02-23T01:11:31.707Z,12.30
2023-02-23T01:13:58.145Z,12.65
2023-02-23T01:16:28.094Z,12.68
2023-02-23T01:18:54.407Z,12.07
2023-02-23T01:21:20.828Z,13.40
2023-02-23T01:23:47.201Z,13.13
2023-02-23T01:26:13.644Z,13.57
2023-02-23T01:28:39.974Z,12.23
2023-02-23T01:31:06.377Z,13.13
2023-02-23T01:33:32.772Z,13.55
2023-02-23T01:35:59.085Z,14.93
2023-02-23T01:38:25.419Z,13.65
2023-02-23T01:40:51.770Z,13.68
2023-02-23T01:43:18.090Z,14.32
2023-02-23T01:45:44.446Z,14.98
2023-02-23T01:48:12.605Z,14.38
2023-02-23T01:50:38.959Z,14.93
2023-02-23T01:53:05.281Z,13.43
2023-02-23T01:55:31.641Z,13.45
2023-02-23T01:57:59.618Z,13.98
2023-02-23T02:00:26.433Z,13.40
2023-02-23T02:02:52.760Z,13.77
2023-02-23T02:05:19.111Z,14.68
2023-02-23T02:07:45.459Z,14.73
2023-02-23T02:10:11.789Z,13.85
2023-02-23T02:12:38.941Z,14.00
2023-02-23T02:15:05.314Z,15.32
2023-02-23T02:17:31.661Z,13.98
2023-02-23T02:19:58.001Z,13.43
2023-02-23T02:22:25.752Z,13.95
2023-02-23T02:24:52.557Z,14.30
2023-02-23T02:27:19.381Z,14.70
2023-02-23T02:29:45.702Z,13.93
2023-02-23T02:32:12.097Z,14.75
2023-02-23T02:34:38.425Z,13.30
2023-02-23T02:37:04.729Z,13.52
2023-02-23T02:39:37.165Z,14.10
2023-02-23T02:42:03.543Z,14.35
2023-02-23T02:44:29.840Z,14.18
2023-02-23T02:46:57.528Z,13.55
2023-02-23T02:49:23.883Z,14.52
2023-02-23T02:51:50.255Z,13.43
2023-02-23T02:54:16.558Z,14.30
2023-02-23T02:56:42.884Z,14.10
2023-02-23T02:59:28.186Z,13.35
2023-02-23T03:02:13.428Z,12.80
2023-02-23T03:04:58.607Z,15.27
2023-02-23T03:07:43.841Z,14.93
2023-02-23T03:10:28.723Z,14.40
2023-02-23T03:13:13.661Z,14.18
2023-02-23T03:15:58.779Z,14.05
2023-02-23T03:18:43.672Z,14.98
2023-02-23T03:21:28.532Z,13.20
2023-02-23T03:24:13.567Z,13.32
2023-02-23T03:26:58.426Z,14.63
2023-02-23T03:29:43.455Z,13.68
2023-02-23T03:32:28.480Z,15.20
2023-02-23T03:35:13.778Z,13.73
2023-02-23T03:37:58.657Z,14.52
2023-02-23T03:40:43.631Z,14.93
2023-02-23T03:43:28.549Z,13.85
2023-02-23T03:46:13.451Z,13.95
2023-02-23T03:48:58.728Z,14.05
2023-02-23T03:51:43.687Z,14.30
2023-02-23T03:54:28.763Z,14.20
2023-02-23T03:57:13.616Z,14.63
2023-02-23T03:59:58.862Z,14.75
2023-02-23T04:02:43.676Z,13.93
2023-02-23T04:05:28.792Z,14.80
2023-02-23T04:08:13.718Z,14.85
2023-02-23T04:10:58.757Z,13.90
2023-02-23T04:13:25.075Z,14.38
2023-02-23T04:15:51.428Z,15.63
2023-02-23T04:18:17.762Z,15.43
2023-02-23T04:20:44.105Z,14.55
2023-02-23T04:23:10.473Z,15.35
2023-02-23T04:25:36.784Z,15.93
2023-02-23T04:28:03.679Z,14.90
2023-02-23T04:30:30.510Z,14.10
2023-02-23T04:32:56.884Z,14.45
2023-02-23T04:35:23.460Z,13.27
2023-02-23T04:37:49.784Z,14.60
2023-02-23T04:40:16.099Z,14.65
2023-02-23T04:42:42.489Z,13.93
2023-02-23T04:45:08.812Z,14.68
2023-02-23T04:47:35.136Z,14.90
2023-02-23T04:50:01.491Z,14.90
2023-02-23T04:52:27.810Z,14.80
2023-02-23T04:54:54.146Z,15.18
2023-02-23T04:57:20.458Z,14.15
2023-02-23T04:59:46.811Z,14.95
2023-02-23T05:02:13.170Z,14.30
2023-02-23T05:04:39.505Z,15.27
2023-02-23T05:07:05.824Z,14.77
2023-02-23T05:09:32.391Z,15.40
2023-02-23T05:11:58.725Z,16.00
2023-02-23T05:14:25.183Z,16.02
2023-02-23T05:16:51.520Z,15.60
2023-02-23T05:19:18.297Z,15.98
2023-02-23T05:21:44.872Z,16.25
2023-02-23T05:24:11.176Z,16.80
2023-02-23T05:26:37.477Z,15.35
2023-02-23T05:29:04.079Z,16.05
2023-02-23T05:31:30.538Z,15.57
2023-02-23T05:33:56.928Z,16.15
2023-02-23T05:36:23.258Z,17.70
2023-02-23T05:38:49.563Z,16.00
2023-02-23T05:41:15.883Z,15.88
2023-02-23T05:43:42.311Z,16.67
2023-02-23T05:46:08.680Z,16.55
2023-02-23T05:48:35.113Z,15.88
2023-02-23T05:51:01.428Z,16.50
2023-02-23T05:53:28.340Z,16.40
2023-02-23T05:55:54.791Z,17.10
2023-02-23T05:58:21.143Z,16.92
2023-02-23T06:00:47.451Z,17.27
2023-02-23T06:03:14.509Z,17.27
2023-02-23T06:05:41.594Z,18.10
2023-02-23T06:08:07.914Z,16.45
2023-02-23T06:10:34.225Z,17.58
2023-02-23T06:13:00.555Z,17.20
2023-02-23T06:15:29.060Z,18.00
2023-02-23T06:17:56.491Z,17.30
2023-02-23T06:20:22.929Z,17.17
2023-02-23T06:22:49.248Z,16.58
2023-02-23T06:25:15.580Z,17.42
2023-02-23T06:27:42.376Z,16.95
2023-02-23T06:30:08.699Z,16.85
2023-02-23T06:32:35.056Z,17.27
2023-02-23T06:35:01.805Z,17.85
2023-02-23T06:37:28.120Z,18.40
2023-02-23T06:39:54.423Z,18.77
2023-02-23T06:42:20.740Z,17.75
2023-02-23T06:44:47.060Z,17.35
2023-02-23T06:47:13.462Z,17.42
2023-02-23T06:49:40.676Z,17.67
2023-02-23T06:52:07.038Z,17.58
2023-02-23T06:54:34.373Z,18.33
2023-02-23T06:57:00.678Z,16.67
2023-02-23T06:59:27.015Z,17.87
2023-02-23T07:01:53.363Z,17.77
2023-02-23T07:04:19.789Z,18.40
2023-02-23T07:06:46.155Z,17.37
2023-02-23T07:09:12.501Z,17.55
2023-02-23T07:11:38.866Z,18.50
2023-02-23T07:14:05.216Z,17.77
2023-02-23T07:16:32.418Z,18.50
2023-02-23T07:18:58.759Z,18.75
2023-02-23T07:21:25.165Z,17.52
2023-02-23T07:23:51.523Z,19.25
2023-02-23T07:26:18.557Z,18.67
2023-02-23T07:28:44.908Z,17.65
2023-02-23T07:31:11.307Z,18.67
2023-02-23T07:33:37.735Z,18.90
2023-02-23T07:36:04.079Z,18.65
2023-02-23T07:38:30.500Z,18.50
2023-02-23T07:40:56.833Z,18.30
2023-02-23T07:43:23.595Z,20.33
2023-02-23T07:45:51.118Z,19.65
2023-02-23T07:48:17.452Z,19.20
2023-02-23T07:50:43.890Z,18.98
2023-02-23T07:53:10.358Z,18.83
2023-02-23T07:55:38.570Z,19.02
2023-02-23T07:58:05.953Z,19.20
2023-02-23T08:00:33.157Z,19.37
2023-02-23T08:02:59.531Z,18.25
2023-02-23T08:05:28.956Z,19.58
2023-02-23T08:07:56.020Z,18.50
2023-02-23T08:10:22.394Z,18.75
2023-02-23T08:12:48.755Z,18.98
2023-02-23T08:15:15.206Z,18.90
2023-02-23T08:17:41.568Z,18.67
2023-02-23T08:20:07.937Z,17.67
2023-02-23T08:22:48.431Z,19.92
2023-02-23T08:25:15.887Z,18.58
2023-02-23T08:27:42.520Z,17.90
2023-02-23T08:30:09.940Z,17.67
2023-02-23T08:32:36.305Z,17.87
2023-02-23T08:35:05.810Z,17.70
2023-02-23T08:37:32.404Z,18.27
2023-02-23T08:39:59.347Z,17.77
2023-02-23T08:42:25.680Z,17.98
2023-02-23T08:44:52.001Z,17.80
2023-02-23T08:47:22.008Z,16.55
2023-02-23T08:49:48.339Z,16.35
2023-02-23T08:52:14.718Z,17.83
2023-02-23T08:54:41.015Z,16.77
2023-02-23T08:57:07.342Z,16.73
2023-02-23T08:59:33.642Z,17.17
2023-02-23T09:01:59.986Z,17.00
2023-02-23T09:04:26.409Z,17.45
2023-02-23T09:06:52.765Z,17.45
2023-02-23T09:09:19.137Z,17.17
2023-02-23T09:11:45.505Z,16.23
2023-02-23T09:14:11.815Z,16.37
2023-02-23T09:16:38.114Z,17.65
2023-02-23T09:19:04.500Z,16.65
2023-02-23T09:21:34.382Z,15.63
2023-02-23T09:24:01.413Z,16.33
2023-02-23T09:26:29.414Z,16.60
2023-02-23T09:28:55.879Z,17.02
2023-02-23T09:31:22.779Z,15.75
2023-02-23T09:33:49.454Z,16.05
2023-02-23T09:36:16.410Z,16.08
2023-02-23T09:38:42.808Z,16.33
2023-02-23T09:41:09.119Z,16.65
2023-02-23T09:43:35.460Z,14.80
2023-02-23T09:46:01.800Z,15.68
2023-02-23T09:48:28.137Z,16.58
2023-02-23T09:50:55.146Z,15.55
2023-02-23T09:53:21.546Z,15.90
2023-02-23T09:55:47.915Z,16.17
2023-02-23T09:58:14.239Z,15.95
2023-02-23T10:00:40.558Z,15.55
2023-02-23T10:03:06.895Z,15.65
2023-02-23T10:05:34.198Z,15.10
2023-02-23T10:08:00.915Z,16.42
2023-02-23T10:10:28.038Z,16.42
2023-02-23T10:12:54.545Z,15.23
2023-02-23T10:15:20.876Z,15.15
2023-02-23T10:17:47.405Z,15.93
2023-02-23T10:20:13.784Z,15.27
2023-02-23T10:22:40.897Z,16.05
2023-02-23T10:25:07.391Z,15.25
2023-02-23T10:27:33.722Z,16.12
2023-02-23T10:30:01.555Z,15.75
2023-02-23T10:32:28.006Z,15.38
2023-02-23T10:34:54.461Z,15.20
2023-02-23T10:37:20.949Z,14.48
2023-02-23T10:39:49.973Z,15.07
2023-02-23T10:42:16.321Z,14.98
2023-02-23T10:44:42.614Z,14.02
2023-02-23T10:47:08.957Z,13.62
2023-02-23T10:49:35.358Z,14.45
2023-02-23T10:52:03.147Z,14.43
2023-02-23T10:54:29.540Z,15.10
2023-02-23T10:56:55.875Z,14.00
2023-02-23T10:59:22.219Z,14.65
2023-02-23T11:02:01.485Z,13.98
2023-02-23T11:04:28.890Z,14.05
2023-02-23T11:06:55.221Z,13.48
2023-02-23T11:09:24.782Z,13.88
2023-02-23T11:11:53.409Z,13.23
2023-02-23T11:14:19.917Z,13.30
2023-02-23T11:16:46.276Z,12.93
2023-02-23T11:19:12.640Z,14.13
2023-02-23T11:21:39.989Z,13.25
2023-02-23T11:24:06.430Z,13.20
2023-02-23T11:26:32.868Z,13.10
2023-02-23T11:28:59.271Z,13.77
2023-02-23T11:31:25.690Z,12.88
2023-02-23T11:33:52.058Z,11.75
2023-02-23T11:36:18.473Z,13.38
2023-02-23T11:38:44.769Z,12.35
2023-02-23T11:41:12.083Z,12.27
2023-02-23T11:43:38.401Z,12.10
2023-02-23T11:46:04.818Z,11.45
2023-02-23T11:48:31.176Z,12.15
2023-02-23T11:50:57.528Z,10.85
2023-02-23T11:53:24.751Z,11.52
2023-02-23T11:55:51.460Z,11.63
2023-02-23T11:58:17.788Z,11.45
2023-02-23T12:00:44.133Z,11.90
2023-02-23T12:03:10.598Z,11.65
2023-02-23T12:05:36.989Z,11.23
2023-02-23T12:08:03.322Z,12.37
2023-02-23T12:10:29.730Z,11.80
2023-02-23T12:12:56.091Z,11.82
2023-02-23T12:15:22.454Z,11.90
2023-02-23T12:17:48.770Z,11.63
2023-02-23T12:20:15.601Z,11.88
2023-02-23T12:22:42.332Z,11.35
2023-02-23T12:25:08.664Z,11.60
2023-02-23T12:27:34.998Z,12.23
2023-02-23T12:30:01.414Z,11.95
2023-02-23T12:32:27.933Z,11.15
2023-02-23T12:34:54.326Z,10.95
2023-02-23T12:37:20.632Z,10.32
2023-02-23T12:39:46.990Z,11.70
2023-02-23T12:42:13.383Z,12.23
2023-02-23T12:44:39.746Z,11.55
2023-02-23T12:47:06.085Z,10.98
2023-02-23T12:49:32.409Z,12.25
2023-02-23T12:51:58.726Z,10.95
2023-02-23T12:54:25.190Z,12.20
2023-02-23T12:56:51.584Z,11.82
2023-02-23T12:59:17.928Z,11.25
2023-02-23T13:01:44.308Z,11.00
2023-02-23T13:04:10.827Z,11.12
2023-02-23T13:06:37.188Z,12.23
2023-02-23T13:09:03.513Z,10.43
2023-02-23T13:11:30.287Z,11.40
2023-02-23T13:13:56.997Z,11.52
2023-02-23T13:16:23.347Z,12.27
2023-02-23T13:18:50.044Z,11.52
2023-02-23T13:21:16.408Z,11.55
2023-02-23T13:23:43.037Z,11.38
2023-02-23T13:26:10.948Z,11.45
2023-02-23T13:28:37.318Z,11.77
2023-02-23T13:31:05.856Z,11.57
2023-02-23T13:33:43.569Z,13.13
2023-02-23T13:36:12.990Z,13.43
2023-02-23T13:38:40.132Z,11.98
2023-02-23T13:41:06.524Z,12.05
2023-02-23T13:43:32.844Z,11.95
2023-02-23T13:45:59.183Z,13.07
2023-02-23T13:48:25.562Z,11.73
2023-02-23T13:50:51.888Z,12.25
2023-02-23T13:53:18.221Z,12.85
2023-02-23T13:55:49.913Z,12.88
2023-02-23T13:58:16.486Z,12.73
2023-02-23T14:00:42.858Z,12.60
2023-02-23T14:03:09.324Z,12.20
2023-02-23T14:05:35.726Z,13.15
2023-02-23T14:08:02.523Z,12.23
2023-02-23T14:10:28.851Z,12.43
2023-02-23T14:12:55.165Z,12.32
2023-02-23T14:15:21.528Z,11.55
2023-02-23T14:17:50.692Z,11.50
2023-02-23T14:20:29.272Z,13.55
2023-02-23T14:22:57.045Z,12.73
2023-02-23T14:25:23.423Z,13.27
2023-02-23T14:27:49.830Z,12.63
2023-02-23T14:30:16.188Z,13.25
2023-02-23T14:32:42.647Z,12.63
2023-02-23T14:35:09.032Z,12.50
2023-02-23T14:37:35.407Z,12.20
2023-02-23T14:40:01.812Z,12.15
2023-02-23T14:42:28.254Z,11.80
2023-02-23T14:44:54.651Z,11.95
2023-02-23T14:47:21.095Z,11.93
2023-02-23T14:49:47.413Z,10.88
2023-02-23T14:52:13.774Z,11.35
2023-02-23T14:54:40.225Z,12.18
2023-02-23T14:57:06.611Z,11.82
2023-02-23T14:59:32.948Z,13.62
2023-02-23T15:01:59.349Z,13.55
2023-02-23T15:04:27.246Z,14.75
2023-02-23T15:06:53.662Z,16.10
2023-02-23T15:09:20.056Z,16.98
2023-02-23T15:11:48.725Z,18.23
2023-02-23T15:14:26.999Z,19.25
2023-02-23T15:16:54.108Z,19.40
2023-02-23T15:19:29.577Z,20.90
2023-02-23T15:21:55.923Z,20.52
2023-02-23T15:24:24.579Z,21.48
2023-02-23T15:26:50.987Z,22.02
2023-02-23T15:29:17.345Z,22.15
2023-02-23T15:31:53.358Z,22.37
2023-02-23T15:34:20.150Z,22.92
2023-02-23T15:36:47.410Z,21.12
2023-02-23T15:39:13.786Z,20.85
2023-02-23T15:41:42.676Z,20.95
2023-02-23T15:44:09.961Z,21.05
2023-02-23T15:46:37.720Z,21.25
2023-02-23T15:49:05.446Z,22.17
2023-02-23T15:51:32.117Z,21.65
2023-02-23T15:53:58.488Z,22.67
2023-02-23T15:56:24.868Z,22.05
2023-02-23T15:58:57.008Z,22.85
2023-02-23T16:01:25.029Z,21.33
2023-02-23T16:03:51.438Z,19.92
2023-02-23T16:06:17.810Z,20.73
2023-02-23T16:08:44.154Z,21.30
2023-02-23T16:11:12.069Z,20.58
2023-02-23T16:13:38.429Z,22.67
2023-02-23T16:16:06.078Z,22.73
2023-02-23T16:18:32.470Z,23.75
2023-02-23T16:20:58.861Z,21.77
2023-02-23T16:23:34.047Z,22.42
2023-02-23T16:26:01.660Z,23.90
2023-02-23T16:28:28.070Z,23.67
2023-02-23T16:30:57.312Z,24.45
2023-02-23T16:33:23.722Z,26.12
2023-02-23T16:35:50.164Z,28.15
2023-02-23T16:38:16.562Z,29.08
2023-02-23T16:40:42.913Z,29.37
2023-02-23T16:43:09.272Z,28.42
2023-02-23T16:45:35.798Z,26.98
2023-02-23T16:48:03.483Z,25.12
2023-02-23T16:50:30.298Z,29.55
2023-02-23T16:52:56.622Z,25.90
2023-02-23T16:55:26.155Z,26.67
2023-02-23T16:57:52.704Z,25.42
2023-02-23T17:00:20.645Z,24.95
2023-02-23T17:02:46.965Z,26.27
2023-02-23T17:05:19.048Z,24.87
2023-02-23T17:07:45.408Z,25.42
2023-02-23T17:10:11.790Z,26.65
2023-02-23T17:12:38.100Z,27.98
2023-02-23T17:15:04.459Z,26.58
2023-02-23T17:17:31.517Z,27.15
2023-02-23T17:19:57.847Z,27.25
2023-02-23T17:22:24.149Z,25.27
2023-02-23T17:24:53.879Z,25.62
2023-02-23T17:27:20.199Z,25.10
2023-02-23T17:29:46.547Z,23.92
2023-02-23T17:32:13.014Z,24.10
2023-02-23T17:34:39.360Z,24.08
2023-02-23T17:37:07.788Z,22.90
2023-02-23T17:39:34.398Z,24.52
2023-02-23T17:42:00.741Z,24.20
2023-02-23T17:44:27.091Z,22.67
2023-02-23T17:46:53.424Z,20.80
2023-02-23T17:49:19.858Z,25.90
2023-02-23T17:51:46.198Z,24.65
2023-02-23T17:54:12.902Z,24.70
2023-02-23T17:56:39.420Z,25.27
2023-02-23T17:59:05.879Z,25.55
2023-02-23T18:01:32.280Z,24.98
2023-02-23T18:04:00.253Z,23.77
2023-02-23T18:06:26.676Z,24.83
2023-02-23T18:08:53.001Z,26.15
2023-02-23T18:11:19.713Z,25.35
2023-02-23T18:13:47.884Z,26.75
2023-02-23T18:16:14.631Z,26.20
2023-02-23T18:18:41.092Z,27.25
2023-02-23T18:21:07.408Z,26.65
2023-02-23T18:23:36.756Z,27.95
2023-02-23T18:26:03.350Z,27.87
2023-02-23T18:28:30.078Z,26.85
2023-02-23T18:30:57.500Z,29.00
2023-02-23T18:33:23.899Z,28.40
2023-02-23T18:35:50.210Z,29.33
2023-02-23T18:38:16.593Z,28.90
2023-02-23T18:40:43.082Z,28.38
2023-02-23T18:43:09.592Z,27.23
2023-02-23T18:45:36.032Z,27.25
2023-02-23T18:48:02.570Z,28.12
2023-02-23T18:50:30.934Z,28.80
2023-02-23T18:52:59.105Z,29.40
2023-02-23T18:55:25.620Z,29.90
2023-02-23T18:57:52.867Z,30.10
2023-02-23T19:00:19.310Z,30.58
2023-02-23T19:02:48.866Z,30.33
2023-02-23T19:05:15.292Z,30.15
2023-02-23T19:07:41.642Z,30.73
2023-02-23T19:10:09.251Z,30.70
2023-02-23T19:12:35.610Z,30.95
2023-02-23T19:15:02.900Z,32.65
2023-02-23T19:17:29.243Z,32.15
2023-02-23T19:19:56.179Z,34.08
2023-02-23T19:22:22.519Z,32.38
2023-02-23T19:24:48.884Z,32.28
2023-02-23T19:27:15.894Z,31.15
2023-02-23T19:29:42.223Z,32.85
2023-02-23T19:32:09.554Z,32.67
2023-02-23T19:34:36.231Z,32.10
2023-02-23T19:37:02.554Z,33.25
2023-02-23T19:39:30.051Z,32.97
2023-02-23T19:41:56.414Z,33.05
2023-02-23T19:44:22.768Z,34.42
2023-02-23T19:46:49.110Z,33.05
2023-02-23T19:49:15.431Z,33.42
2023-02-23T19:51:41.808Z,31.92
2023-02-23T19:54:08.205Z,31.42
2023-02-23T19:56:34.602Z,32.17
2023-02-23T19:59:00.952Z,31.87
2023-02-23T20:01:30.437Z,31.37
2023-02-23T20:03:57.355Z,30.58
2023-02-23T20:06:23.865Z,32.70
2023-02-23T20:08:52.714Z,34.33
2023-02-23T20:11:19.534Z,34.00
2023-02-23T20:13:46.522Z,34.38
2023-02-23T20:16:12.962Z,34.50
2023-02-23T20:18:39.881Z,34.60
2023-02-23T20:21:07.787Z,35.03
2023-02-23T20:23:35.739Z,32.95
2023-02-23T20:26:02.050Z,34.47
2023-02-23T20:28:28.359Z,33.75
2023-02-23T20:30:54.730Z,34.30
2023-02-23T20:33:21.070Z,34.65
2023-02-23T20:35:47.492Z,33.22
2023-02-23T20:38:15.454Z,35.55
2023-02-23T20:40:41.799Z,33.88
2023-02-23T20:43:08.130Z,33.88
2023-02-23T20:45:34.470Z,34.22
2023-02-23T20:48:00.924Z,33.80
2023-02-23T20:50:29.014Z,34.67
2023-02-23T20:52:55.472Z,36.28
2023-02-23T20:55:26.433Z,35.53
2023-02-23T20:57:52.766Z,35.33
2023-02-23T21:00:29.519Z,35.53
2023-02-23T21:02:57.748Z,34.83
2023-02-23T21:05:24.313Z,35.83
2023-02-23T21:07:50.665Z,35.30
2023-02-23T21:10:16.999Z,33.78
2023-02-23T21:12:43.412Z,34.60
2023-02-23T21:15:09.714Z,34.38
2023-02-23T21:17:39.949Z,34.45
2023-02-23T21:20:06.822Z,34.95
2023-02-23T21:22:33.169Z,36.28
2023-02-23T21:25:00.819Z,34.20
2023-02-23T21:27:27.193Z,35.53
2023-02-23T21:29:55.452Z,33.30
2023-02-23T21:32:21.923Z,34.83
2023-02-23T21:34:48.290Z,37.03
2023-02-23T21:37:14.599Z,37.38
2023-02-23T21:39:41.396Z,37.05
2023-02-23T21:42:07.710Z,36.90
2023-02-23T21:44:34.096Z,35.28
2023-02-23T21:47:00.708Z,34.83
2023-02-23T21:49:27.002Z,34.90
2023-02-23T21:51:54.126Z,35.05
2023-02-23T21:54:21.577Z,36.78
2023-02-23T21:56:47.914Z,37.15
2023-02-23T21:59:14.320Z,39.40
2023-02-23T22:01:42.993Z,47.72
2023-02-23T22:04:09.416Z,45.42
2023-02-23T22:06:36.189Z,47.20
2023-02-23T22:09:03.295Z,48.13
2023-02-23T22:11:29.612Z,49.47
2023-02-23T22:13:59.081Z,49.85
2023-02-23T22:16:25.414Z,49.13
2023-02-23T22:18:51.825Z,46.03
2023-02-23T22:21:19.258Z,48.83
2023-02-23T22:23:48.037Z,50.15
2023-02-23T22:26:14.379Z,52.90
2023-02-23T22:28:40.706Z,52.47
2023-02-23T22:31:07.462Z,53.38
2023-02-23T22:33:33.863Z,54.15
2023-02-23T22:36:00.212Z,53.22
2023-02-23T22:38:26.528Z,54.30
2023-02-23T22:40:52.873Z,56.20
2023-02-23T22:43:22.106Z,56.40
2023-02-23T22:45:48.464Z,59.63
2023-02-23T22:48:14.783Z,57.67
2023-02-23T22:50:42.291Z,57.70
2023-02-23T22:53:08.602Z,58.22
2023-02-23T22:55:35.151Z,60.15
2023-02-23T22:58:01.542Z,59.08
2023-02-23T23:00:27.978Z,59.25
2023-02-23T23:02:54.390Z,58.90
2023-02-23T23:05:21.761Z,57.90
2023-02-23T23:07:48.106Z,57.45
2023-02-23T23:10:14.477Z,59.10
2023-02-23T23:12:40.813Z,55.38
2023-02-23T23:15:13.503Z,52.42
2023-02-23T23:17:39.842Z,53.92
2023-02-23T23:20:11.943Z,51.80
2023-02-23T23:22:38.703Z,53.95
2023-02-23T23:25:11.232Z,54.20
2023-02-23T23:27:41.449Z,56.63
2023-02-23T23:30:07.928Z,57.85
2023-02-23T23:32:34.288Z,52.22
2023-02-23T23:35:01.615Z,52.33
2023-02-23T23:37:29.242Z,51.53
2023-02-23T23:39:59.400Z,50.58
2023-02-23T23:42:25.906Z,49.10
2023-02-23T23:44:52.214Z,48.67
2023-02-23T23:47:18.838Z,47.90
2023-02-23T23:49:45.442Z,47.47
2023-02-23T23:52:17.898Z,45.47
2023-02-23T23:54:44.750Z,45.67
2023-02-23T23:57:11.862Z,46.75
2023-02-23T23:59:45.978Z,44.97
